sensor_id;sensor_type;location;lat;lon;timestamp;P1;durP1;ratioP1;P2;durP2;ratioP2
21860;SDS011;11095;48.066;8.540;2023-11-19T00:01:31;12.40;;;9.32;;
21860;SDS011;11095;48.066;8.540;2023-11-19T00:03:57;13.80;;;9.82;;
21860;SDS011;11095;48.066;8.540;2023-11-19T00:06:23;12.57;;;8.63;;
21860;SDS011;11095;48.066;8.540;2023-11-19T00:08:50;12.77;;;9.30;;
21860;SDS011;11095;48.066;8.540;2023-11-19T00:11:16;12.50;;;9.13;;
21860;SDS011;11095;48.066;8.540;2023-11-19T00:13:41;11.35;;;8.55;;
21860;SDS011;11095;48.066;8.540;2023-11-19T00:16:07;11.30;;;8.93;;
21860;SDS011;11095;48.066;8.540;2023-11-19T00:18:34;11.00;;;8.80;;
21860;SDS011;11095;48.066;8.540;2023-11-19T00:21:01;11.35;;;8.23;;
21860;SDS011;11095;48.066;8.540;2023-11-19T00:23:27;11.65;;;8.70;;
21860;SDS011;11095;48.066;8.540;2023-11-19T00:25:53;10.77;;;8.15;;
21860;SDS011;11095;48.066;8.540;2023-11-19T00:28:18;9.35;;;7.80;;
21860;SDS011;11095;48.066;8.540;2023-11-19T00:30:44;9.48;;;7.93;;
21860;SDS011;11095;48.066;8.540;2023-11-19T00:33:10;11.15;;;8.43;;
21860;SDS011;11095;48.066;8.540;2023-11-19T00:35:35;10.43;;;7.95;;
21860;SDS011;11095;48.066;8.540;2023-11-19T00:38:01;10.95;;;8.25;;
21860;SDS011;11095;48.066;8.540;2023-11-19T00:40:27;11.43;;;8.18;;
21860;SDS011;11095;48.066;8.540;2023-11-19T00:42:53;10.95;;;8.13;;
21860;SDS011;11095;48.066;8.540;2023-11-19T00:45:19;10.07;;;7.50;;
21860;SDS011;11095;48.066;8.540;2023-11-19T00:47:44;9.52;;;7.20;;
21860;SDS011;11095;48.066;8.540;2023-11-19T00:50:10;10.05;;;7.35;;
21860;SDS011;11095;48.066;8.540;2023-11-19T00:52:36;10.07;;;7.70;;
21860;SDS011;11095;48.066;8.540;2023-11-19T00:55:02;9.48;;;7.15;;
21860;SDS011;11095;48.066;8.540;2023-11-19T00:57:29;9.90;;;7.53;;
21860;SDS011;11095;48.066;8.540;2023-11-19T00:59:58;9.57;;;7.40;;
21860;SDS011;11095;48.066;8.540;2023-11-19T01:02:24;10.00;;;7.20;;
21860;SDS011;11095;48.066;8.540;2023-11-19T01:04:50;9.43;;;7.45;;
21860;SDS011;11095;48.066;8.540;2023-11-19T01:07:16;10.48;;;7.22;;
21860;SDS011;11095;48.066;8.540;2023-11-19T01:09:41;9.75;;;7.38;;
21860;SDS011;11095;48.066;8.540;2023-11-19T01:12:07;9.73;;;6.97;;
21860;SDS011;11095;48.066;8.540;2023-11-19T01:14:34;9.50;;;7.28;;
21860;SDS011;11095;48.066;8.540;2023-11-19T01:17:00;10.30;;;7.00;;
21860;SDS011;11095;48.066;8.540;2023-11-19T01:19:26;9.48;;;6.95;;
21860;SDS011;11095;48.066;8.540;2023-11-19T01:21:53;10.13;;;7.25;;
21860;SDS011;11095;48.066;8.540;2023-11-19T01:24:19;10.05;;;7.10;;
21860;SDS011;11095;48.066;8.540;2023-11-19T01:26:45;8.18;;;6.43;;
21860;SDS011;11095;48.066;8.540;2023-11-19T01:29:14;9.50;;;6.97;;
21860;SDS011;11095;48.066;8.540;2023-11-19T01:31:40;8.13;;;5.97;;
21860;SDS011;11095;48.066;8.540;2023-11-19T01:34:06;8.73;;;6.68;;
21860;SDS011;11095;48.066;8.540;2023-11-19T01:36:32;9.85;;;6.80;;
21860;SDS011;11095;48.066;8.540;2023-11-19T01:38:57;9.48;;;6.32;;
21860;SDS011;11095;48.066;8.540;2023-11-19T01:41:23;8.18;;;6.22;;
21860;SDS011;11095;48.066;8.540;2023-11-19T01:43:49;8.88;;;6.10;;
21860;SDS011;11095;48.066;8.540;2023-11-19T01:46:15;7.32;;;5.70;;
21860;SDS011;11095;48.066;8.540;2023-11-19T01:48:42;8.63;;;5.78;;
21860;SDS011;11095;48.066;8.540;2023-11-19T01:51:10;8.30;;;5.82;;
21860;SDS011;11095;48.066;8.540;2023-11-19T01:53:41;7.93;;;5.82;;
21860;SDS011;11095;48.066;8.540;2023-11-19T01:56:08;7.82;;;5.40;;
21860;SDS011;11095;48.066;8.540;2023-11-19T01:58:36;7.57;;;5.53;;
21860;SDS011;11095;48.066;8.540;2023-11-19T02:01:03;8.20;;;5.63;;
21860;SDS011;11095;48.066;8.540;2023-11-19T02:03:33;7.47;;;5.55;;
21860;SDS011;11095;48.066;8.540;2023-11-19T02:05:59;6.63;;;5.00;;
21860;SDS011;11095;48.066;8.540;2023-11-19T02:08:25;7.35;;;5.60;;
21860;SDS011;11095;48.066;8.540;2023-11-19T02:10:51;7.75;;;5.13;;
21860;SDS011;11095;48.066;8.540;2023-11-19T02:13:18;7.97;;;5.43;;
21860;SDS011;11095;48.066;8.540;2023-11-19T02:15:44;7.85;;;5.18;;
21860;SDS011;11095;48.066;8.540;2023-11-19T02:18:19;6.18;;;4.88;;
21860;SDS011;11095;48.066;8.540;2023-11-19T02:20:52;5.97;;;4.45;;
21860;SDS011;11095;48.066;8.540;2023-11-19T02:23:20;6.47;;;4.35;;
21860;SDS011;11095;48.066;8.540;2023-11-19T02:28:35;6.07;;;4.18;;
21860;SDS011;11095;48.066;8.540;2023-11-19T02:31:02;5.47;;;4.38;;
21860;SDS011;11095;48.066;8.540;2023-11-19T02:33:30;6.13;;;4.55;;
21860;SDS011;11095;48.066;8.540;2023-11-19T02:35:55;5.70;;;4.40;;
21860;SDS011;11095;48.066;8.540;2023-11-19T02:38:21;4.22;;;3.65;;
21860;SDS011;11095;48.066;8.540;2023-11-19T02:40:47;6.05;;;3.72;;
21860;SDS011;11095;48.066;8.540;2023-11-19T02:43:14;5.22;;;4.07;;
21860;SDS011;11095;48.066;8.540;2023-11-19T02:45:40;4.95;;;3.70;;
21860;SDS011;11095;48.066;8.540;2023-11-19T02:48:05;3.80;;;3.30;;
21860;SDS011;11095;48.066;8.540;2023-11-19T02:50:31;4.65;;;3.35;;
21860;SDS011;11095;48.066;8.540;2023-11-19T02:52:57;4.63;;;3.45;;
21860;SDS011;11095;48.066;8.540;2023-11-19T02:55:22;3.88;;;3.13;;
21860;SDS011;11095;48.066;8.540;2023-11-19T02:57:49;4.75;;;3.40;;
21860;SDS011;11095;48.066;8.540;2023-11-19T03:00:15;4.07;;;3.15;;
21860;SDS011;11095;48.066;8.540;2023-11-19T03:02:42;4.22;;;3.17;;
21860;SDS011;11095;48.066;8.540;2023-11-19T03:05:13;5.13;;;3.55;;
21860;SDS011;11095;48.066;8.540;2023-11-19T03:07:40;5.47;;;3.30;;
21860;SDS011;11095;48.066;8.540;2023-11-19T03:10:07;4.50;;;3.05;;
21860;SDS011;11095;48.066;8.540;2023-11-19T03:12:34;5.55;;;3.30;;
21860;SDS011;11095;48.066;8.540;2023-11-19T03:15:00;4.18;;;3.10;;
21860;SDS011;11095;48.066;8.540;2023-11-19T03:17:26;4.50;;;2.85;;
21860;SDS011;11095;48.066;8.540;2023-11-19T03:19:51;4.13;;;2.72;;
21860;SDS011;11095;48.066;8.540;2023-11-19T03:22:17;4.85;;;2.60;;
21860;SDS011;11095;48.066;8.540;2023-11-19T03:24:42;3.72;;;2.20;;
21860;SDS011;11095;48.066;8.540;2023-11-19T03:27:08;3.58;;;2.10;;
21860;SDS011;11095;48.066;8.540;2023-11-19T03:29:33;2.35;;;1.92;;
21860;SDS011;11095;48.066;8.540;2023-11-19T03:31:59;1.88;;;1.40;;
21860;SDS011;11095;48.066;8.540;2023-11-19T03:34:24;1.42;;;1.17;;
21860;SDS011;11095;48.066;8.540;2023-11-19T03:36:51;1.70;;;1.27;;
21860;SDS011;11095;48.066;8.540;2023-11-19T03:39:16;2.00;;;1.30;;
21860;SDS011;11095;48.066;8.540;2023-11-19T03:41:45;1.33;;;1.10;;
21860;SDS011;11095;48.066;8.540;2023-11-19T03:44:12;1.67;;;0.98;;
21860;SDS011;11095;48.066;8.540;2023-11-19T03:46:37;2.22;;;1.13;;
21860;SDS011;11095;48.066;8.540;2023-11-19T03:49:03;2.00;;;1.15;;
21860;SDS011;11095;48.066;8.540;2023-11-19T03:51:29;1.30;;;1.10;;
21860;SDS011;11095;48.066;8.540;2023-11-19T03:53:55;1.00;;;0.90;;
21860;SDS011;11095;48.066;8.540;2023-11-19T03:56:20;1.50;;;1.00;;
21860;SDS011;11095;48.066;8.540;2023-11-19T03:58:46;1.23;;;1.13;;
21860;SDS011;11095;48.066;8.540;2023-11-19T04:01:12;1.30;;;1.17;;
21860;SDS011;11095;48.066;8.540;2023-11-19T04:03:38;2.05;;;1.48;;
21860;SDS011;11095;48.066;8.540;2023-11-19T04:06:04;1.20;;;1.10;;
21860;SDS011;11095;48.066;8.540;2023-11-19T04:08:30;2.03;;;1.40;;
21860;SDS011;11095;48.066;8.540;2023-11-19T04:10:55;2.22;;;1.42;;
21860;SDS011;11095;48.066;8.540;2023-11-19T04:13:21;2.05;;;1.60;;
21860;SDS011;11095;48.066;8.540;2023-11-19T04:15:48;2.10;;;1.90;;
21860;SDS011;11095;48.066;8.540;2023-11-19T04:18:14;2.35;;;1.95;;
21860;SDS011;11095;48.066;8.540;2023-11-19T04:20:40;1.85;;;1.60;;
21860;SDS011;11095;48.066;8.540;2023-11-19T04:23:07;1.85;;;1.65;;
21860;SDS011;11095;48.066;8.540;2023-11-19T04:25:33;1.92;;;1.73;;
21860;SDS011;11095;48.066;8.540;2023-11-19T04:27:59;2.00;;;1.80;;
21860;SDS011;11095;48.066;8.540;2023-11-19T04:30:25;2.33;;;1.50;;
21860;SDS011;11095;48.066;8.540;2023-11-19T04:32:51;2.10;;;1.90;;
21860;SDS011;11095;48.066;8.540;2023-11-19T04:35:16;1.80;;;1.70;;
21860;SDS011;11095;48.066;8.540;2023-11-19T04:37:42;1.70;;;1.60;;
21860;SDS011;11095;48.066;8.540;2023-11-19T04:40:08;1.67;;;1.40;;
21860;SDS011;11095;48.066;8.540;2023-11-19T04:42:34;1.50;;;1.30;;
21860;SDS011;11095;48.066;8.540;2023-11-19T04:45:00;1.50;;;1.33;;
21860;SDS011;11095;48.066;8.540;2023-11-19T04:47:25;1.33;;;1.23;;
21860;SDS011;11095;48.066;8.540;2023-11-19T04:49:51;1.85;;;1.30;;
21860;SDS011;11095;48.066;8.540;2023-11-19T04:52:16;1.13;;;1.02;;
21860;SDS011;11095;48.066;8.540;2023-11-19T04:54:42;1.20;;;1.05;;
21860;SDS011;11095;48.066;8.540;2023-11-19T04:57:08;1.20;;;1.10;;
21860;SDS011;11095;48.066;8.540;2023-11-19T04:59:36;2.65;;;1.42;;
21860;SDS011;11095;48.066;8.540;2023-11-19T05:02:02;1.17;;;1.08;;
21860;SDS011;11095;48.066;8.540;2023-11-19T05:04:29;1.30;;;1.13;;
21860;SDS011;11095;48.066;8.540;2023-11-19T05:06:54;1.40;;;1.13;;
21860;SDS011;11095;48.066;8.540;2023-11-19T05:09:20;1.10;;;0.93;;
21860;SDS011;11095;48.066;8.540;2023-11-19T05:11:46;1.45;;;0.95;;
21860;SDS011;11095;48.066;8.540;2023-11-19T05:14:12;1.23;;;1.13;;
21860;SDS011;11095;48.066;8.540;2023-11-19T05:16:40;1.20;;;1.10;;
21860;SDS011;11095;48.066;8.540;2023-11-19T05:19:06;1.52;;;1.40;;
21860;SDS011;11095;48.066;8.540;2023-11-19T05:21:32;1.90;;;1.58;;
21860;SDS011;11095;48.066;8.540;2023-11-19T05:23:58;2.10;;;1.65;;
21860;SDS011;11095;48.066;8.540;2023-11-19T05:26:24;2.17;;;1.83;;
21860;SDS011;11095;48.066;8.540;2023-11-19T05:28:49;2.42;;;2.10;;
21860;SDS011;11095;48.066;8.540;2023-11-19T05:31:16;2.13;;;1.90;;
21860;SDS011;11095;48.066;8.540;2023-11-19T05:33:42;1.73;;;1.63;;
21860;SDS011;11095;48.066;8.540;2023-11-19T05:36:08;2.45;;;2.03;;
21860;SDS011;11095;48.066;8.540;2023-11-19T05:38:35;2.15;;;1.90;;
21860;SDS011;11095;48.066;8.540;2023-11-19T05:41:01;2.00;;;1.80;;
21860;SDS011;11095;48.066;8.540;2023-11-19T05:43:27;2.10;;;1.90;;
21860;SDS011;11095;48.066;8.540;2023-11-19T05:45:53;1.90;;;1.65;;
21860;SDS011;11095;48.066;8.540;2023-11-19T05:48:18;2.72;;;1.60;;
21860;SDS011;11095;48.066;8.540;2023-11-19T05:50:44;1.70;;;1.60;;
21860;SDS011;11095;48.066;8.540;2023-11-19T05:53:10;1.60;;;1.50;;
21860;SDS011;11095;48.066;8.540;2023-11-19T05:55:38;1.88;;;1.77;;
21860;SDS011;11095;48.066;8.540;2023-11-19T05:58:25;1.30;;;1.20;;
21860;SDS011;11095;48.066;8.540;2023-11-19T06:00:53;1.25;;;1.15;;
21860;SDS011;11095;48.066;8.540;2023-11-19T06:06:21;1.50;;;1.30;;
21860;SDS011;11095;48.066;8.540;2023-11-19T06:08:47;2.20;;;1.13;;
21860;SDS011;11095;48.066;8.540;2023-11-19T06:11:12;0.90;;;0.90;;
21860;SDS011;11095;48.066;8.540;2023-11-19T06:13:43;1.10;;;1.00;;
21860;SDS011;11095;48.066;8.540;2023-11-19T06:16:09;1.15;;;1.05;;
21860;SDS011;11095;48.066;8.540;2023-11-19T06:18:34;0.98;;;0.98;;
21860;SDS011;11095;48.066;8.540;2023-11-19T06:21:01;0.90;;;0.90;;
21860;SDS011;11095;48.066;8.540;2023-11-19T06:23:27;1.13;;;1.02;;
21860;SDS011;11095;48.066;8.540;2023-11-19T06:25:52;1.00;;;0.90;;
21860;SDS011;11095;48.066;8.540;2023-11-19T06:28:18;0.90;;;0.70;;
21860;SDS011;11095;48.066;8.540;2023-11-19T06:30:44;1.15;;;0.80;;
21860;SDS011;11095;48.066;8.540;2023-11-19T06:33:12;1.00;;;0.90;;
21860;SDS011;11095;48.066;8.540;2023-11-19T06:35:38;0.95;;;0.90;;
21860;SDS011;11095;48.066;8.540;2023-11-19T06:38:03;2.10;;;1.90;;
21860;SDS011;11095;48.066;8.540;2023-11-19T06:40:29;1.45;;;1.20;;
21860;SDS011;11095;48.066;8.540;2023-11-19T06:42:55;1.30;;;1.13;;
21860;SDS011;11095;48.066;8.540;2023-11-19T06:45:22;1.92;;;1.10;;
21860;SDS011;11095;48.066;8.540;2023-11-19T06:47:47;1.55;;;1.45;;
21860;SDS011;11095;48.066;8.540;2023-11-19T06:50:13;1.17;;;1.08;;
21860;SDS011;11095;48.066;8.540;2023-11-19T06:52:40;0.80;;;0.80;;
21860;SDS011;11095;48.066;8.540;2023-11-19T06:55:05;1.05;;;0.90;;
21860;SDS011;11095;48.066;8.540;2023-11-19T06:57:31;0.85;;;0.85;;
21860;SDS011;11095;48.066;8.540;2023-11-19T06:59:57;0.82;;;0.82;;
21860;SDS011;11095;48.066;8.540;2023-11-19T07:02:23;0.82;;;0.82;;
21860;SDS011;11095;48.066;8.540;2023-11-19T07:04:50;0.93;;;0.77;;
21860;SDS011;11095;48.066;8.540;2023-11-19T07:07:16;1.10;;;0.73;;
21860;SDS011;11095;48.066;8.540;2023-11-19T07:09:41;0.80;;;0.80;;
21860;SDS011;11095;48.066;8.540;2023-11-19T07:12:07;0.70;;;0.70;;
21860;SDS011;11095;48.066;8.540;2023-11-19T07:14:33;1.48;;;0.88;;
21860;SDS011;11095;48.066;8.540;2023-11-19T07:16:59;1.40;;;1.30;;
21860;SDS011;11095;48.066;8.540;2023-11-19T07:19:25;1.60;;;1.30;;
21860;SDS011;11095;48.066;8.540;2023-11-19T07:21:51;1.40;;;1.30;;
21860;SDS011;11095;48.066;8.540;2023-11-19T07:24:19;1.45;;;1.10;;
21860;SDS011;11095;48.066;8.540;2023-11-19T07:26:46;1.25;;;1.15;;
21860;SDS011;11095;48.066;8.540;2023-11-19T07:31:41;1.42;;;1.30;;
21860;SDS011;11095;48.066;8.540;2023-11-19T07:34:09;1.15;;;1.00;;
21860;SDS011;11095;48.066;8.540;2023-11-19T07:36:35;1.13;;;1.02;;
21860;SDS011;11095;48.066;8.540;2023-11-19T07:39:01;1.02;;;0.85;;
21860;SDS011;11095;48.066;8.540;2023-11-19T07:41:27;0.80;;;0.70;;
21860;SDS011;11095;48.066;8.540;2023-11-19T07:43:53;1.40;;;1.27;;
21860;SDS011;11095;48.066;8.540;2023-11-19T07:46:19;2.25;;;1.48;;
21860;SDS011;11095;48.066;8.540;2023-11-19T07:48:45;2.00;;;1.20;;
21860;SDS011;11095;48.066;8.540;2023-11-19T07:51:12;1.70;;;1.00;;
21860;SDS011;11095;48.066;8.540;2023-11-19T07:53:38;1.23;;;0.73;;
21860;SDS011;11095;48.066;8.540;2023-11-19T07:56:04;0.63;;;0.63;;
21860;SDS011;11095;48.066;8.540;2023-11-19T07:58:30;1.50;;;0.80;;
21860;SDS011;11095;48.066;8.540;2023-11-19T08:00:56;2.10;;;0.68;;
21860;SDS011;11095;48.066;8.540;2023-11-19T08:03:21;1.83;;;1.10;;
21860;SDS011;11095;48.066;8.540;2023-11-19T08:05:47;1.38;;;1.00;;
21860;SDS011;11095;48.066;8.540;2023-11-19T08:08:13;1.00;;;0.90;;
21860;SDS011;11095;48.066;8.540;2023-11-19T08:10:39;1.20;;;0.90;;
21860;SDS011;11095;48.066;8.540;2023-11-19T08:13:05;1.20;;;0.90;;
21860;SDS011;11095;48.066;8.540;2023-11-19T08:15:31;1.00;;;0.90;;
21860;SDS011;11095;48.066;8.540;2023-11-19T08:17:56;1.65;;;1.33;;
21860;SDS011;11095;48.066;8.540;2023-11-19T08:20:22;2.53;;;1.30;;
21860;SDS011;11095;48.066;8.540;2023-11-19T08:22:48;1.02;;;0.90;;
21860;SDS011;11095;48.066;8.540;2023-11-19T08:25:14;1.10;;;1.00;;
21860;SDS011;11095;48.066;8.540;2023-11-19T08:27:39;1.00;;;0.90;;
21860;SDS011;11095;48.066;8.540;2023-11-19T08:30:05;2.03;;;0.90;;
21860;SDS011;11095;48.066;8.540;2023-11-19T08:32:31;1.10;;;0.80;;
21860;SDS011;11095;48.066;8.540;2023-11-19T08:34:57;1.52;;;1.10;;
21860;SDS011;11095;48.066;8.540;2023-11-19T08:37:23;1.20;;;0.80;;
21860;SDS011;11095;48.066;8.540;2023-11-19T08:39:48;0.80;;;0.80;;
21860;SDS011;11095;48.066;8.540;2023-11-19T08:42:15;0.90;;;0.70;;
21860;SDS011;11095;48.066;8.540;2023-11-19T08:44:41;0.85;;;0.63;;
21860;SDS011;11095;48.066;8.540;2023-11-19T08:47:09;0.77;;;0.65;;
21860;SDS011;11095;48.066;8.540;2023-11-19T08:49:36;1.02;;;0.63;;
21860;SDS011;11095;48.066;8.540;2023-11-19T08:52:01;0.60;;;0.52;;
21860;SDS011;11095;48.066;8.540;2023-11-19T08:54:27;0.90;;;0.60;;
21860;SDS011;11095;48.066;8.540;2023-11-19T08:56:53;0.60;;;0.60;;
21860;SDS011;11095;48.066;8.540;2023-11-19T08:59:18;0.80;;;0.65;;
21860;SDS011;11095;48.066;8.540;2023-11-19T09:01:44;1.05;;;0.70;;
21860;SDS011;11095;48.066;8.540;2023-11-19T09:04:09;0.73;;;0.70;;
21860;SDS011;11095;48.066;8.540;2023-11-19T09:06:35;0.77;;;0.68;;
21860;SDS011;11095;48.066;8.540;2023-11-19T09:09:01;0.68;;;0.60;;
21860;SDS011;11095;48.066;8.540;2023-11-19T09:11:30;0.70;;;0.60;;
21860;SDS011;11095;48.066;8.540;2023-11-19T09:13:56;0.50;;;0.50;;
21860;SDS011;11095;48.066;8.540;2023-11-19T09:16:22;0.60;;;0.60;;
21860;SDS011;11095;48.066;8.540;2023-11-19T09:18:47;0.43;;;0.43;;
21860;SDS011;11095;48.066;8.540;2023-11-19T09:21:13;1.58;;;0.63;;
21860;SDS011;11095;48.066;8.540;2023-11-19T09:23:39;0.40;;;0.40;;
21860;SDS011;11095;48.066;8.540;2023-11-19T09:26:05;0.47;;;0.47;;
21860;SDS011;11095;48.066;8.540;2023-11-19T09:28:32;0.75;;;0.40;;
21860;SDS011;11095;48.066;8.540;2023-11-19T09:30:58;1.83;;;0.70;;
21860;SDS011;11095;48.066;8.540;2023-11-19T09:33:24;0.32;;;0.32;;
21860;SDS011;11095;48.066;8.540;2023-11-19T09:35:50;1.02;;;0.50;;
21860;SDS011;11095;48.066;8.540;2023-11-19T09:38:16;0.60;;;0.60;;
21860;SDS011;11095;48.066;8.540;2023-11-19T09:40:41;0.70;;;0.60;;
21860;SDS011;11095;48.066;8.540;2023-11-19T09:43:07;0.50;;;0.50;;
21860;SDS011;11095;48.066;8.540;2023-11-19T09:45:39;0.63;;;0.60;;
21860;SDS011;11095;48.066;8.540;2023-11-19T09:48:17;1.02;;;0.73;;
21860;SDS011;11095;48.066;8.540;2023-11-19T09:50:47;0.73;;;0.50;;
21860;SDS011;11095;48.066;8.540;2023-11-19T09:53:13;0.50;;;0.50;;
21860;SDS011;11095;48.066;8.540;2023-11-19T09:55:42;1.17;;;0.60;;
21860;SDS011;11095;48.066;8.540;2023-11-19T09:58:08;0.40;;;0.40;;
21860;SDS011;11095;48.066;8.540;2023-11-19T10:00:34;1.08;;;0.52;;
21860;SDS011;11095;48.066;8.540;2023-11-19T10:03:00;0.50;;;0.50;;
21860;SDS011;11095;48.066;8.540;2023-11-19T10:05:26;0.88;;;0.60;;
21860;SDS011;11095;48.066;8.540;2023-11-19T10:07:52;0.40;;;0.40;;
21860;SDS011;11095;48.066;8.540;2023-11-19T10:10:18;0.63;;;0.63;;
21860;SDS011;11095;48.066;8.540;2023-11-19T10:12:47;1.50;;;0.70;;
21860;SDS011;11095;48.066;8.540;2023-11-19T10:15:24;1.23;;;0.60;;
21860;SDS011;11095;48.066;8.540;2023-11-19T10:17:52;0.30;;;0.30;;
21860;SDS011;11095;48.066;8.540;2023-11-19T10:20:20;0.73;;;0.65;;
21860;SDS011;11095;48.066;8.540;2023-11-19T10:22:45;1.20;;;0.77;;
21860;SDS011;11095;48.066;8.540;2023-11-19T10:25:44;0.98;;;0.63;;
21860;SDS011;11095;48.066;8.540;2023-11-19T10:28:03;1.38;;;0.73;;
21860;SDS011;11095;48.066;8.540;2023-11-19T10:30:29;1.08;;;0.98;;
21860;SDS011;11095;48.066;8.540;2023-11-19T10:33:05;0.70;;;0.70;;
21860;SDS011;11095;48.066;8.540;2023-11-19T10:35:37;0.80;;;0.70;;
21860;SDS011;11095;48.066;8.540;2023-11-19T10:38:17;1.42;;;0.90;;
21860;SDS011;11095;48.066;8.540;2023-11-19T10:40:42;1.40;;;1.10;;
21860;SDS011;11095;48.066;8.540;2023-11-19T10:43:08;0.90;;;0.80;;
21860;SDS011;11095;48.066;8.540;2023-11-19T10:45:37;1.80;;;0.90;;
21860;SDS011;11095;48.066;8.540;2023-11-19T10:48:04;0.57;;;0.55;;
21860;SDS011;11095;48.066;8.540;2023-11-19T10:50:36;0.57;;;0.50;;
21860;SDS011;11095;48.066;8.540;2023-11-19T10:53:03;0.88;;;0.52;;
21860;SDS011;11095;48.066;8.540;2023-11-19T10:55:30;0.40;;;0.40;;
21860;SDS011;11095;48.066;8.540;2023-11-19T10:57:58;0.40;;;0.40;;
21860;SDS011;11095;48.066;8.540;2023-11-19T11:00:26;0.68;;;0.45;;
21860;SDS011;11095;48.066;8.540;2023-11-19T11:02:56;1.08;;;0.60;;
21860;SDS011;11095;48.066;8.540;2023-11-19T11:05:26;0.45;;;0.45;;
21860;SDS011;11095;48.066;8.540;2023-11-19T11:07:52;0.80;;;0.43;;
21860;SDS011;11095;48.066;8.540;2023-11-19T11:10:20;0.80;;;0.60;;
21860;SDS011;11095;48.066;8.540;2023-11-19T11:12:51;0.80;;;0.70;;
21860;SDS011;11095;48.066;8.540;2023-11-19T11:15:23;0.65;;;0.60;;
21860;SDS011;11095;48.066;8.540;2023-11-19T11:17:52;0.60;;;0.60;;
21860;SDS011;11095;48.066;8.540;2023-11-19T11:20:25;0.77;;;0.40;;
21860;SDS011;11095;48.066;8.540;2023-11-19T11:23:37;0.70;;;0.40;;
21860;SDS011;11095;48.066;8.540;2023-11-19T11:25:50;0.45;;;0.32;;
21860;SDS011;11095;48.066;8.540;2023-11-19T11:28:46;0.60;;;0.50;;
21860;SDS011;11095;48.066;8.540;2023-11-19T11:39:33;1.10;;;0.60;;
21860;SDS011;11095;48.066;8.540;2023-11-19T11:44:58;0.50;;;0.40;;
21860;SDS011;11095;48.066;8.540;2023-11-19T11:50:11;0.60;;;0.20;;
21860;SDS011;11095;48.066;8.540;2023-11-19T11:58:21;0.30;;;0.30;;
21860;SDS011;11095;48.066;8.540;2023-11-19T12:00:51;0.68;;;0.40;;
21860;SDS011;11095;48.066;8.540;2023-11-19T12:03:19;0.40;;;0.40;;
21860;SDS011;11095;48.066;8.540;2023-11-19T12:05:49;0.95;;;0.63;;
21860;SDS011;11095;48.066;8.540;2023-11-19T12:08:15;0.30;;;0.30;;
21860;SDS011;11095;48.066;8.540;2023-11-19T12:10:52;0.43;;;0.35;;
21860;SDS011;11095;48.066;8.540;2023-11-19T12:13:19;0.88;;;0.47;;
21860;SDS011;11095;48.066;8.540;2023-11-19T12:18:31;6.43;;;2.40;;
21860;SDS011;11095;48.066;8.540;2023-11-19T12:20:57;1.08;;;0.63;;
21860;SDS011;11095;48.066;8.540;2023-11-19T12:23:28;0.95;;;0.70;;
21860;SDS011;11095;48.066;8.540;2023-11-19T12:25:55;1.73;;;1.00;;
21860;SDS011;11095;48.066;8.540;2023-11-19T12:28:22;2.83;;;1.52;;
21860;SDS011;11095;48.066;8.540;2023-11-19T12:30:49;1.70;;;0.98;;
21860;SDS011;11095;48.066;8.540;2023-11-19T12:33:16;1.23;;;0.77;;
21860;SDS011;11095;48.066;8.540;2023-11-19T12:35:42;2.20;;;0.90;;
21860;SDS011;11095;48.066;8.540;2023-11-19T12:38:22;1.77;;;1.05;;
21860;SDS011;11095;48.066;8.540;2023-11-19T12:41:09;0.60;;;0.60;;
21860;SDS011;11095;48.066;8.540;2023-11-19T12:43:36;0.75;;;0.55;;
21860;SDS011;11095;48.066;8.540;2023-11-19T12:46:21;0.40;;;0.40;;
21860;SDS011;11095;48.066;8.540;2023-11-19T12:48:48;0.50;;;0.40;;
21860;SDS011;11095;48.066;8.540;2023-11-19T12:51:14;0.52;;;0.40;;
21860;SDS011;11095;48.066;8.540;2023-11-19T12:53:50;2.45;;;0.63;;
21860;SDS011;11095;48.066;8.540;2023-11-19T12:56:19;1.75;;;0.60;;
21860;SDS011;11095;48.066;8.540;2023-11-19T12:58:45;1.33;;;0.90;;
21860;SDS011;11095;48.066;8.540;2023-11-19T13:01:14;0.60;;;0.50;;
21860;SDS011;11095;48.066;8.540;2023-11-19T13:03:41;0.80;;;0.80;;
21860;SDS011;11095;48.066;8.540;2023-11-19T13:06:08;0.60;;;0.50;;
21860;SDS011;11095;48.066;8.540;2023-11-19T13:08:39;0.60;;;0.57;;
21860;SDS011;11095;48.066;8.540;2023-11-19T13:11:13;1.75;;;0.50;;
21860;SDS011;11095;48.066;8.540;2023-11-19T13:16:21;1.67;;;0.75;;
21860;SDS011;11095;48.066;8.540;2023-11-19T13:18:47;5.28;;;1.80;;
21860;SDS011;11095;48.066;8.540;2023-11-19T13:21:12;0.90;;;0.70;;
21860;SDS011;11095;48.066;8.540;2023-11-19T13:23:38;0.70;;;0.63;;
21860;SDS011;11095;48.066;8.540;2023-11-19T13:26:03;1.25;;;0.70;;
21860;SDS011;11095;48.066;8.540;2023-11-19T13:28:29;0.75;;;0.52;;
21860;SDS011;11095;48.066;8.540;2023-11-19T13:30:55;1.25;;;0.60;;
21860;SDS011;11095;48.066;8.540;2023-11-19T13:33:21;1.20;;;0.63;;
21860;SDS011;11095;48.066;8.540;2023-11-19T13:35:46;0.38;;;0.35;;
21860;SDS011;11095;48.066;8.540;2023-11-19T13:38:12;0.35;;;0.32;;
21860;SDS011;11095;48.066;8.540;2023-11-19T13:40:37;2.58;;;0.57;;
21860;SDS011;11095;48.066;8.540;2023-11-19T13:43:04;0.95;;;0.60;;
21860;SDS011;11095;48.066;8.540;2023-11-19T13:45:29;2.25;;;0.70;;
21860;SDS011;11095;48.066;8.540;2023-11-19T13:47:55;1.30;;;0.73;;
21860;SDS011;11095;48.066;8.540;2023-11-19T13:50:21;1.58;;;0.70;;
21860;SDS011;11095;48.066;8.540;2023-11-19T13:52:47;0.40;;;0.40;;
21860;SDS011;11095;48.066;8.540;2023-11-19T13:55:13;0.50;;;0.50;;
21860;SDS011;11095;48.066;8.540;2023-11-19T13:57:40;0.50;;;0.50;;
21860;SDS011;11095;48.066;8.540;2023-11-19T14:00:07;0.50;;;0.50;;
21860;SDS011;11095;48.066;8.540;2023-11-19T14:02:48;1.13;;;0.50;;
21860;SDS011;11095;48.066;8.540;2023-11-19T14:05:14;0.40;;;0.40;;
21860;SDS011;11095;48.066;8.540;2023-11-19T14:07:42;0.40;;;0.40;;
21860;SDS011;11095;48.066;8.540;2023-11-19T14:10:08;2.45;;;0.50;;
21860;SDS011;11095;48.066;8.540;2023-11-19T14:12:36;1.10;;;0.60;;
21860;SDS011;11095;48.066;8.540;2023-11-19T14:15:05;1.08;;;0.60;;
21860;SDS011;11095;48.066;8.540;2023-11-19T14:17:32;0.88;;;0.55;;
21860;SDS011;11095;48.066;8.540;2023-11-19T14:19:58;1.23;;;0.73;;
21860;SDS011;11095;48.066;8.540;2023-11-19T14:22:24;0.40;;;0.40;;
21860;SDS011;11095;48.066;8.540;2023-11-19T14:24:50;0.65;;;0.40;;
21860;SDS011;11095;48.066;8.540;2023-11-19T14:27:16;0.95;;;0.50;;
21860;SDS011;11095;48.066;8.540;2023-11-19T14:29:44;0.70;;;0.50;;
21860;SDS011;11095;48.066;8.540;2023-11-19T14:32:10;0.70;;;0.60;;
21860;SDS011;11095;48.066;8.540;2023-11-19T14:34:36;2.25;;;0.60;;
21860;SDS011;11095;48.066;8.540;2023-11-19T14:37:01;0.70;;;0.50;;
21860;SDS011;11095;48.066;8.540;2023-11-19T14:39:27;0.75;;;0.57;;
21860;SDS011;11095;48.066;8.540;2023-11-19T14:41:55;1.30;;;0.70;;
21860;SDS011;11095;48.066;8.540;2023-11-19T14:46:51;1.48;;;0.70;;
21860;SDS011;11095;48.066;8.540;2023-11-19T14:49:17;1.08;;;0.65;;
21860;SDS011;11095;48.066;8.540;2023-11-19T14:51:42;1.42;;;0.77;;
21860;SDS011;11095;48.066;8.540;2023-11-19T14:54:08;0.90;;;0.70;;
21860;SDS011;11095;48.066;8.540;2023-11-19T14:56:34;1.48;;;0.60;;
21860;SDS011;11095;48.066;8.540;2023-11-19T14:58:59;0.70;;;0.70;;
21860;SDS011;11095;48.066;8.540;2023-11-19T15:01:25;1.20;;;0.63;;
21860;SDS011;11095;48.066;8.540;2023-11-19T15:03:50;2.50;;;0.98;;
21860;SDS011;11095;48.066;8.540;2023-11-19T15:06:16;0.85;;;0.52;;
21860;SDS011;11095;48.066;8.540;2023-11-19T15:08:42;1.50;;;0.80;;
21860;SDS011;11095;48.066;8.540;2023-11-19T15:11:08;1.00;;;0.50;;
21860;SDS011;11095;48.066;8.540;2023-11-19T15:13:34;2.13;;;0.70;;
21860;SDS011;11095;48.066;8.540;2023-11-19T15:16:02;0.88;;;0.50;;
21860;SDS011;11095;48.066;8.540;2023-11-19T15:18:30;1.10;;;0.70;;
21860;SDS011;11095;48.066;8.540;2023-11-19T15:20:56;2.00;;;1.00;;
21860;SDS011;11095;48.066;8.540;2023-11-19T15:23:22;1.50;;;0.98;;